Terminal Aerodrome Forecast
Issued by NWS

Home | Current Version | Previous Version | Text Only | Print | Product List | Glossary On
Versions: 1 2 3 4 5 6 7 8 9 10 11 12 13 14 15 16 17 18 19 20 21
000
FTUS46 KPDT 092340
TAFDLS
TAF
KDLS 092340Z 1000/1024 09003KT P6SM BKN050
      TEMPO 1000/1004 1SM -SN BR BKN004 OVC025
     FM100400 30008KT 5SM -SN BKN012 BKN030
     FM101500 30010KT P6SM BKN015 OVC050
     FM102000 28008KT P6SM VCSH BKN020 BKN050=

USA.gov is the U.S. government's official web portal to all federal, state and local government web resources and services.